Time;durP1;ratioP1;P1;durP2;ratioP2;P2;SDS_P1;SDS_P2;PMS_P1;PMS_P2;Temp;Humidity;BMP_temperature;BMP_pressure;BME280_temperature;BME280_humidity;BME280_pressure;Samples;Min_cycle;Max_cycle;Signal;HPM_P1;HPM_P2
2023/08/18 00:00:15;;;;;;;34.13;22.60;;;18.10;99.90;;;;;;5018398;28;20214;-64
2023/08/18 00:02:43;;;;;;;38.67;23.43;;;18.00;99.90;;;;;;4997827;28;20217;-64
2023/08/18 00:05:13;;;;;;;38.10;21.77;;;18.00;99.90;;;;;;4999132;28;20217;-63
2023/08/18 00:07:41;;;;;;;37.83;22.23;;;18.00;99.90;;;;;;5000457;28;20222;-64
2023/08/18 00:10:10;;;;;;;39.23;24.27;;;18.00;99.90;;;;;;5015387;28;20222;-64
2023/08/18 00:12:38;;;;;;;31.37;22.77;;;18.10;99.90;;;;;;4997706;28;20245;-64
2023/08/18 00:15:07;;;;;;;36.33;23.40;;;18.10;99.90;;;;;;5005479;28;20222;-64
2023/08/18 00:17:36;;;;;;;34.40;23.60;;;18.10;99.90;;;;;;5013532;28;20268;-64
2023/08/18 00:20:06;;;;;;;38.80;23.20;;;18.10;99.90;;;;;;5008486;28;20254;-63
2023/08/18 00:22:35;;;;;;;39.30;24.20;;;18.10;99.90;;;;;;5014753;28;20285;-63
2023/08/18 00:25:04;;;;;;;36.63;24.17;;;18.20;99.90;;;;;;5017149;28;20198;-64
2023/08/18 00:27:34;;;;;;;35.60;22.70;;;18.20;99.90;;;;;;5011115;28;20218;-64
2023/08/18 00:30:03;;;;;;;38.40;23.17;;;18.20;99.90;;;;;;5021403;28;20311;-63
2023/08/18 00:32:33;;;;;;;38.60;23.63;;;18.20;99.90;;;;;;5015301;28;20226;-63
2023/08/18 00:35:01;;;;;;;36.00;23.53;;;18.20;99.90;;;;;;5018760;28;20576;-64
2023/08/18 00:37:30;;;;;;;37.03;24.37;;;18.20;99.90;;;;;;5004801;28;20186;-64
2023/08/18 00:40:00;;;;;;;36.17;23.13;;;18.20;99.90;;;;;;5016172;28;20657;-64
2023/08/18 00:42:28;;;;;;;40.20;24.77;;;18.20;99.90;;;;;;5014183;28;20236;-64
2023/08/18 00:44:56;;;;;;;38.07;24.27;;;18.20;99.90;;;;;;4998504;28;20224;-64
2023/08/18 00:47:25;;;;;;;40.20;24.87;;;18.20;99.90;;;;;;5014728;28;20620;-64
2023/08/18 00:49:55;;;;;;;41.53;24.50;;;18.20;99.90;;;;;;5010889;28;20235;-64
2023/08/18 00:52:23;;;;;;;38.73;24.70;;;18.20;99.90;;;;;;5025123;28;20186;-64
2023/08/18 00:54:53;;;;;;;39.90;24.17;;;18.20;99.90;;;;;;5014654;28;20213;-64
2023/08/18 00:57:23;;;;;;;40.10;25.00;;;18.20;99.90;;;;;;5013908;28;20218;-64
2023/08/18 00:59:51;;;;;;;42.03;25.10;;;18.20;99.90;;;;;;5014473;28;20233;-64
2023/08/18 01:02:20;;;;;;;46.23;26.17;;;18.20;99.90;;;;;;5014020;28;20230;-64
2023/08/18 01:05:07;;;;;;;46.37;26.63;;;18.20;99.90;;;;;;5014038;28;20570;-64
2023/08/18 01:07:36;;;;;;;47.43;27.67;;;18.20;99.90;;;;;;5005005;28;20214;-64
2023/08/18 01:10:05;;;;;;;45.27;27.33;;;18.20;99.90;;;;;;5014538;28;20204;-64
2023/08/18 01:12:46;;;;;;;44.23;26.20;;;18.20;99.90;;;;;;5013442;28;20225;-64
2023/08/18 01:15:18;;;;;;;46.60;26.60;;;18.30;99.90;;;;;;5015146;28;20234;-64
2023/08/18 01:17:51;;;;;;;44.33;26.07;;;18.30;99.90;;;;;;5018779;28;20230;-64
2023/08/18 01:20:22;;;;;;;44.20;25.50;;;18.30;99.90;;;;;;5003024;28;20225;-64
2023/08/18 01:22:56;;;;;;;50.53;27.20;;;18.30;99.90;;;;;;5011871;28;20232;-64
2023/08/18 01:25:25;;;;;;;53.17;27.17;;;18.30;99.90;;;;;;5018773;28;20252;-64
2023/08/18 01:27:55;;;;;;;51.83;26.37;;;18.30;99.90;;;;;;5013571;28;20201;-64
2023/08/18 01:30:28;;;;;;;47.27;26.90;;;18.30;99.90;;;;;;5013081;28;20228;-64
2023/08/18 01:33:02;;;;;;;49.50;28.90;;;18.30;99.90;;;;;;5016940;28;20225;-64
2023/08/18 01:35:32;;;;;;;46.77;28.47;;;18.30;99.90;;;;;;5012628;28;20249;-64
2023/08/18 01:38:04;;;;;;;51.50;28.23;;;18.30;99.90;;;;;;5012392;28;20223;-64
2023/08/18 01:40:33;;;;;;;52.33;29.20;;;18.30;99.90;;;;;;5008634;28;20191;-64
2023/08/18 01:43:03;;;;;;;47.90;28.80;;;18.40;99.90;;;;;;5013690;28;20613;-64
2023/08/18 01:45:32;;;;;;;50.83;27.87;;;18.40;99.90;;;;;;5012494;28;20564;-64
2023/08/18 01:48:00;;;;;;;50.80;29.63;;;18.40;99.90;;;;;;5013579;28;20699;-64
2023/08/18 01:50:28;;;;;;;50.03;27.80;;;18.30;99.90;;;;;;5020718;28;20232;-65
2023/08/18 01:52:56;;;;;;;49.67;27.97;;;18.40;99.90;;;;;;5014074;28;20640;-64
2023/08/18 01:55:26;;;;;;;53.43;30.13;;;18.40;99.90;;;;;;5014987;28;20216;-64
2023/08/18 01:57:55;;;;;;;50.10;27.73;;;18.40;99.90;;;;;;5013883;28;20200;-64
2023/08/18 02:00:23;;;;;;;52.53;28.13;;;18.40;99.90;;;;;;5023201;28;20617;-64
2023/08/18 02:02:51;;;;;;;57.47;29.50;;;18.40;99.90;;;;;;5011731;28;20218;-65
2023/08/18 02:05:20;;;;;;;50.63;28.47;;;18.40;99.90;;;;;;5011197;28;20299;-64
2023/08/18 02:07:48;;;;;;;53.47;29.87;;;18.50;99.90;;;;;;5011327;28;20224;-64
2023/08/18 02:10:19;;;;;;;50.43;28.23;;;18.50;99.90;;;;;;5013164;28;20289;-64
2023/08/18 02:12:49;;;;;;;55.63;30.10;;;18.50;99.90;;;;;;5012711;28;20226;-64
2023/08/18 02:15:17;;;;;;;56.73;29.70;;;18.50;99.90;;;;;;5006616;28;20218;-64
2023/08/18 02:17:45;;;;;;;54.13;29.43;;;18.50;99.90;;;;;;5012901;28;20222;-64
2023/08/18 02:20:14;;;;;;;50.50;29.07;;;18.50;99.90;;;;;;5011184;28;20268;-64
2023/08/18 02:22:42;;;;;;;51.13;28.60;;;18.50;99.90;;;;;;4995039;28;20218;-64
2023/08/18 02:25:10;;;;;;;52.37;28.57;;;18.50;99.90;;;;;;5012317;28;20205;-64
2023/08/18 02:27:38;;;;;;;61.73;31.43;;;18.60;99.90;;;;;;4995260;28;20341;-64
2023/08/18 02:30:09;;;;;;;56.63;31.63;;;18.60;99.90;;;;;;5011243;28;20219;-64
2023/08/18 02:32:37;;;;;;;59.63;30.50;;;18.60;99.90;;;;;;5016388;28;20226;-64
2023/08/18 02:35:07;;;;;;;50.93;29.03;;;18.60;99.90;;;;;;5011638;28;20643;-64
2023/08/18 02:37:35;;;;;;;50.63;27.23;;;18.60;99.90;;;;;;5009472;28;20578;-64
2023/08/18 02:40:05;;;;;;;57.00;30.23;;;18.60;99.90;;;;;;5013068;28;20202;-64
2023/08/18 02:42:35;;;;;;;55.23;30.20;;;18.60;99.90;;;;;;4990622;28;20597;-64
2023/08/18 02:45:04;;;;;;;56.10;28.63;;;18.60;99.90;;;;;;5011606;28;20350;-64
2023/08/18 02:47:34;;;;;;;53.43;30.07;;;18.70;99.90;;;;;;5012702;28;20275;-64
2023/08/18 02:50:03;;;;;;;48.53;28.13;;;18.70;99.90;;;;;;5000971;28;20217;-64
2023/08/18 02:52:32;;;;;;;52.13;28.30;;;18.70;99.90;;;;;;5012675;28;20198;-64
2023/08/18 02:55:00;;;;;;;55.17;29.03;;;18.70;99.90;;;;;;4997027;28;20248;-64
2023/08/18 02:57:28;;;;;;;50.27;28.37;;;18.70;99.90;;;;;;4999482;28;21942;-64
2023/08/18 02:59:57;;;;;;;53.87;29.53;;;18.70;99.90;;;;;;5012356;28;20663;-64
2023/08/18 03:02:25;;;;;;;56.67;30.77;;;18.80;99.90;;;;;;5012385;28;20308;-65
2023/08/18 03:04:55;;;;;;;53.43;29.30;;;18.80;99.90;;;;;;5012705;28;20229;-64
2023/08/18 03:07:23;;;;;;;56.73;31.13;;;18.70;99.90;;;;;;5012142;28;20711;-64
2023/08/18 03:09:51;;;;;;;62.20;31.40;;;18.70;99.90;;;;;;5013339;28;20289;-64
2023/08/18 03:12:20;;;;;;;58.60;31.67;;;18.80;99.90;;;;;;5012719;28;20240;-64
2023/08/18 03:14:48;;;;;;;53.17;30.10;;;18.80;99.90;;;;;;5011539;28;20226;-64
2023/08/18 03:17:16;;;;;;;54.83;29.37;;;18.80;99.90;;;;;;5016928;28;20229;-64
2023/08/18 03:19:44;;;;;;;59.67;32.03;;;18.80;99.90;;;;;;5016259;28;20275;-64
2023/08/18 03:22:14;;;;;;;57.60;31.43;;;18.80;99.90;;;;;;4994951;28;20201;-64
2023/08/18 03:24:42;;;;;;;52.03;29.47;;;18.80;99.90;;;;;;5016513;28;20251;-64
2023/08/18 03:27:11;;;;;;;60.10;32.20;;;18.80;99.90;;;;;;5015451;28;20503;-65
2023/08/18 03:29:39;;;;;;;57.27;31.70;;;18.80;99.90;;;;;;5003676;28;20217;-64
2023/08/18 03:32:09;;;;;;;61.10;33.33;;;18.80;99.90;;;;;;5011131;28;20225;-63
2023/08/18 03:34:38;;;;;;;55.17;31.60;;;18.80;99.90;;;;;;4995886;28;20229;-63
2023/08/18 03:37:06;;;;;;;58.60;33.10;;;18.80;99.90;;;;;;5010568;28;20190;-64
2023/08/18 03:39:36;;;;;;;56.50;31.37;;;18.80;99.90;;;;;;5015319;28;20244;-64
2023/08/18 03:42:04;;;;;;;55.97;32.03;;;18.80;99.90;;;;;;5006555;28;20244;-64
2023/08/18 03:44:32;;;;;;;57.20;32.07;;;18.80;99.90;;;;;;5008874;28;20249;-64
2023/08/18 03:47:00;;;;;;;61.33;34.10;;;18.80;99.90;;;;;;5013376;28;20226;-64
2023/08/18 03:49:29;;;;;;;53.90;31.77;;;18.80;99.90;;;;;;5018490;28;20289;-64
2023/08/18 03:51:57;;;;;;;57.57;32.77;;;18.80;99.90;;;;;;5016845;28;20194;-65
2023/08/18 03:54:26;;;;;;;58.23;31.23;;;18.90;99.90;;;;;;5011122;28;20582;-64
2023/08/18 03:56:56;;;;;;;59.37;33.40;;;18.90;99.90;;;;;;5012280;28;20596;-64
2023/08/18 03:59:24;;;;;;;63.73;34.10;;;18.90;99.90;;;;;;5011612;28;20301;-64
2023/08/18 04:01:52;;;;;;;65.27;35.50;;;18.90;99.90;;;;;;5013539;28;20300;-65
2023/08/18 04:04:20;;;;;;;69.37;34.57;;;18.90;99.90;;;;;;5013749;28;20194;-64
2023/08/18 04:06:48;;;;;;;68.87;34.97;;;18.80;99.90;;;;;;5012743;28;20218;-64
2023/08/18 04:09:17;;;;;;;63.70;34.13;;;18.80;99.90;;;;;;5017422;28;20221;-65
2023/08/18 04:11:46;;;;;;;61.53;34.40;;;18.80;99.90;;;;;;5011119;28;20226;-64
2023/08/18 04:14:16;;;;;;;55.33;33.17;;;18.90;99.90;;;;;;5013391;28;20229;-64
2023/08/18 04:16:46;;;;;;;62.87;33.73;;;18.90;99.90;;;;;;5014028;28;20214;-63
2023/08/18 04:19:14;;;;;;;60.13;33.13;;;18.90;99.90;;;;;;5012236;28;20631;-63
2023/08/18 04:21:43;;;;;;;65.47;34.87;;;18.90;99.90;;;;;;5006723;28;20230;-64
2023/08/18 04:24:13;;;;;;;67.90;36.60;;;18.90;99.90;;;;;;5016079;28;20264;-63
2023/08/18 04:26:41;;;;;;;66.00;37.57;;;18.90;99.90;;;;;;5010697;28;20230;-64
2023/08/18 04:29:10;;;;;;;69.37;36.33;;;18.90;99.90;;;;;;4998339;28;20232;-64
2023/08/18 04:31:39;;;;;;;65.60;35.17;;;18.90;99.90;;;;;;5013844;28;20217;-64
2023/08/18 04:34:08;;;;;;;70.67;35.80;;;18.90;99.90;;;;;;5013568;28;20585;-66
2023/08/18 04:36:37;;;;;;;64.10;36.13;;;18.90;99.90;;;;;;5011111;28;20224;-64
2023/08/18 04:39:05;;;;;;;67.77;35.33;;;18.90;99.90;;;;;;5005916;28;20768;-64
2023/08/18 04:41:33;;;;;;;67.90;36.83;;;18.90;99.90;;;;;;5012545;28;20217;-64
2023/08/18 04:44:02;;;;;;;73.90;36.93;;;18.90;99.90;;;;;;5015082;28;20225;-63
2023/08/18 04:46:31;;;;;;;71.80;38.00;;;18.90;99.90;;;;;;5015367;28;20200;-63
2023/08/18 04:49:01;;;;;;;82.80;38.03;;;18.90;99.90;;;;;;5016181;28;20533;-63
2023/08/18 04:51:29;;;;;;;71.30;38.37;;;18.90;99.90;;;;;;5022469;28;20214;-64
2023/08/18 04:53:57;;;;;;;71.27;38.30;;;18.90;99.90;;;;;;5013137;28;20244;-64
2023/08/18 04:56:26;;;;;;;68.97;36.83;;;18.90;99.90;;;;;;5014117;28;20217;-64
2023/08/18 04:58:55;;;;;;;80.57;38.67;;;18.90;99.90;;;;;;5011459;28;20770;-64
2023/08/18 05:01:23;;;;;;;72.80;39.17;;;18.90;99.90;;;;;;5014123;28;20597;-63
2023/08/18 05:03:51;;;;;;;75.67;39.30;;;18.90;99.90;;;;;;5014444;28;20202;-64
2023/08/18 05:06:21;;;;;;;85.30;40.03;;;18.90;99.90;;;;;;5013261;28;20218;-64
2023/08/18 05:08:49;;;;;;;86.40;40.33;;;18.80;99.90;;;;;;5007746;28;20569;-64
2023/08/18 05:11:18;;;;;;;80.77;40.63;;;18.80;99.90;;;;;;5013210;28;20225;-64
2023/08/18 05:13:46;;;;;;;83.37;41.00;;;18.90;99.90;;;;;;5013038;28;20229;-63
2023/08/18 05:16:14;;;;;;;85.83;41.73;;;18.90;99.90;;;;;;5010541;28;20726;-64
2023/08/18 05:18:43;;;;;;;82.00;40.43;;;18.80;99.90;;;;;;5014285;28;20288;-63
2023/08/18 05:21:11;;;;;;;83.20;41.77;;;18.90;99.90;;;;;;5002148;28;20228;-64
2023/08/18 05:23:41;;;;;;;91.80;40.90;;;18.90;99.90;;;;;;5013613;28;20240;-64
2023/08/18 05:26:09;;;;;;;86.87;41.43;;;18.90;99.90;;;;;;5012735;28;20231;-64
2023/08/18 05:28:39;;;;;;;93.20;43.13;;;18.90;99.90;;;;;;5004584;28;20316;-64
2023/08/18 05:31:08;;;;;;;87.83;42.63;;;18.90;99.90;;;;;;5012853;28;20206;-64
2023/08/18 05:33:36;;;;;;;91.40;42.00;;;18.90;99.90;;;;;;5011962;28;20222;-64
2023/08/18 05:36:05;;;;;;;96.57;43.87;;;18.90;99.90;;;;;;5007257;28;20217;-64
2023/08/18 05:38:34;;;;;;;106.30;44.33;;;18.90;99.90;;;;;;5010956;28;20240;-64
2023/08/18 05:41:15;;;;;;;112.10;44.73;;;18.90;99.90;;;;;;5008895;28;20232;-63
2023/08/18 05:43:44;;;;;;;106.67;46.77;;;18.90;99.90;;;;;;5013009;28;20225;-63
2023/08/18 05:46:12;;;;;;;115.43;48.10;;;18.90;99.90;;;;;;5011148;28;20290;-64
2023/08/18 05:48:41;;;;;;;114.47;47.87;;;18.90;99.90;;;;;;5003195;28;20301;-64
2023/08/18 05:51:09;;;;;;;122.40;49.60;;;18.90;99.90;;;;;;5007752;28;20321;-64
2023/08/18 05:53:37;;;;;;;117.70;49.47;;;18.90;99.90;;;;;;5011697;28;20231;-64
2023/08/18 05:56:07;;;;;;;110.20;47.57;;;18.90;99.90;;;;;;5009358;28;20227;-64
2023/08/18 05:58:35;;;;;;;114.10;46.60;;;18.90;99.90;;;;;;5010838;28;20205;-64
2023/08/18 06:01:04;;;;;;;104.47;45.37;;;18.90;99.90;;;;;;5008628;28;20747;-64
2023/08/18 06:03:34;;;;;;;116.97;46.03;;;18.90;99.90;;;;;;5013376;28;20230;-64
2023/08/18 06:06:02;;;;;;;114.70;46.53;;;18.90;99.90;;;;;;5009361;28;20218;-64
2023/08/18 06:08:34;;;;;;;112.53;46.17;;;18.80;99.90;;;;;;5011037;28;20222;-64
2023/08/18 06:11:02;;;;;;;118.23;48.50;;;18.80;99.90;;;;;;5009980;28;20249;-63
2023/08/18 06:13:32;;;;;;;118.30;48.33;;;18.80;99.90;;;;;;5012014;28;20190;-63
2023/08/18 06:16:04;;;;;;;116.07;46.73;;;18.80;99.90;;;;;;5015484;28;20210;-63
2023/08/18 06:18:33;;;;;;;113.60;46.50;;;18.80;99.90;;;;;;5005597;28;20228;-63
2023/08/18 06:21:02;;;;;;;102.33;42.57;;;18.70;99.90;;;;;;5010222;28;20580;-63
2023/08/18 06:23:30;;;;;;;107.20;42.37;;;18.70;99.90;;;;;;4993521;28;20233;-64
2023/08/18 06:25:58;;;;;;;106.17;42.03;;;18.70;99.90;;;;;;5008219;28;20226;-63
2023/08/18 06:28:27;;;;;;;106.77;40.53;;;18.70;99.90;;;;;;5007750;28;20189;-63
2023/08/18 06:31:05;;;;;;;95.03;40.43;;;18.80;99.90;;;;;;5010619;28;20190;-63
2023/08/18 06:33:34;;;;;;;106.50;42.47;;;18.70;99.90;;;;;;4985584;28;20312;-63
2023/08/18 06:36:03;;;;;;;105.80;42.40;;;18.70;99.90;;;;;;4995130;28;20229;-63
2023/08/18 06:38:31;;;;;;;106.47;42.00;;;18.70;99.90;;;;;;4995506;28;20225;-63
2023/08/18 06:40:59;;;;;;;96.27;42.07;;;18.70;99.90;;;;;;5014787;28;20218;-63
2023/08/18 06:43:28;;;;;;;112.97;43.97;;;18.70;99.90;;;;;;5010799;28;20190;-63
2023/08/18 06:45:56;;;;;;;110.50;44.13;;;18.70;99.90;;;;;;5012116;28;20222;-64
2023/08/18 06:48:26;;;;;;;106.73;43.07;;;18.70;99.90;;;;;;5014113;28;20767;-64
2023/08/18 06:50:54;;;;;;;108.17;44.47;;;18.80;99.90;;;;;;5011913;28;20249;-64
2023/08/18 06:53:23;;;;;;;111.63;44.90;;;18.70;99.90;;;;;;5005958;28;20226;-64
2023/08/18 06:55:52;;;;;;;107.93;43.67;;;18.70;99.90;;;;;;5012112;28;20222;-63
2023/08/18 06:58:30;;;;;;;102.87;41.50;;;18.80;99.90;;;;;;5007655;28;20194;-64
2023/08/18 07:00:59;;;;;;;101.93;41.80;;;18.80;99.90;;;;;;5005192;28;20191;-64
2023/08/18 07:03:29;;;;;;;101.23;42.27;;;18.80;99.90;;;;;;5002509;28;20221;-64
2023/08/18 07:05:57;;;;;;;106.87;43.00;;;18.80;99.90;;;;;;5010678;28;20584;-63
2023/08/18 07:08:26;;;;;;;97.30;41.97;;;18.80;99.90;;;;;;5010860;28;20732;-64
2023/08/18 07:10:54;;;;;;;105.30;43.30;;;18.90;99.90;;;;;;5010078;28;20242;-64
2023/08/18 07:13:23;;;;;;;102.83;42.50;;;18.80;99.90;;;;;;5012204;28;20190;-63
2023/08/18 07:15:51;;;;;;;110.03;43.03;;;18.80;99.90;;;;;;5012137;28;20517;-63
2023/08/18 07:18:19;;;;;;;105.67;42.80;;;18.80;99.90;;;;;;5012164;28;20221;-63
2023/08/18 07:20:49;;;;;;;95.40;39.37;;;18.90;99.90;;;;;;5010227;28;20305;-63
2023/08/18 07:23:18;;;;;;;97.03;38.37;;;19.00;99.90;;;;;;5010982;28;20222;-63
2023/08/18 07:25:47;;;;;;;103.20;41.67;;;19.00;99.90;;;;;;5011981;28;20692;-63
2023/08/18 07:28:15;;;;;;;105.90;42.80;;;19.10;99.90;;;;;;5015714;28;20221;-64
2023/08/18 07:30:44;;;;;;;100.83;40.73;;;19.10;99.90;;;;;;5014880;28;20236;-63
2023/08/18 07:33:12;;;;;;;102.87;41.77;;;19.00;99.90;;;;;;5014781;28;20283;-63
2023/08/18 07:35:40;;;;;;;97.30;41.83;;;19.10;99.90;;;;;;5013008;28;20268;-63
2023/08/18 07:38:10;;;;;;;102.97;44.83;;;19.10;99.90;;;;;;5012154;28;20692;-64
2023/08/18 07:40:39;;;;;;;104.77;43.60;;;19.00;99.90;;;;;;5015452;28;20217;-63
2023/08/18 07:43:10;;;;;;;111.00;42.87;;;19.10;99.90;;;;;;5014946;28;20198;-64
2023/08/18 07:46:16;;;;;;;110.80;44.17;;;19.10;99.90;;;;;;4997779;28;20240;-63
2023/08/18 07:48:47;;;;;;;111.47;42.90;;;19.00;99.90;;;;;;5012548;28;20217;-63
2023/08/18 07:51:17;;;;;;;104.13;42.20;;;19.10;99.90;;;;;;5016575;28;20214;-63
2023/08/18 07:53:46;;;;;;;100.30;41.87;;;19.20;99.90;;;;;;5012837;28;20226;-63
2023/08/18 07:56:15;;;;;;;98.47;40.67;;;19.20;99.90;;;;;;5007377;28;20700;-63
2023/08/18 07:58:43;;;;;;;98.63;39.10;;;19.20;99.90;;;;;;5004745;28;20237;-63
2023/08/18 08:01:12;;;;;;;89.73;38.33;;;19.30;99.90;;;;;;5014894;28;20190;-64
2023/08/18 08:03:40;;;;;;;91.87;36.90;;;19.40;99.90;;;;;;5014197;28;20746;-63
2023/08/18 08:06:09;;;;;;;88.13;36.07;;;19.40;99.90;;;;;;4989029;28;20621;-63
2023/08/18 08:08:37;;;;;;;83.93;34.90;;;19.50;99.90;;;;;;5013069;28;20359;-63
2023/08/18 08:11:07;;;;;;;81.67;36.03;;;19.40;99.90;;;;;;5018212;28;20229;-63
2023/08/18 08:13:35;;;;;;;86.70;37.40;;;19.50;99.90;;;;;;5011989;28;20190;-63
2023/08/18 08:16:04;;;;;;;88.73;37.57;;;19.50;99.90;;;;;;5010335;28;20213;-63
2023/08/18 08:18:34;;;;;;;83.27;35.53;;;19.40;99.90;;;;;;5009899;28;20261;-64
2023/08/18 08:21:02;;;;;;;83.40;34.87;;;19.40;99.90;;;;;;5008117;28;20218;-63
2023/08/18 08:23:31;;;;;;;89.47;37.93;;;19.40;99.90;;;;;;5014416;28;20795;-63
2023/08/18 08:25:59;;;;;;;77.20;35.27;;;19.30;99.90;;;;;;5014470;28;20224;-63
2023/08/18 08:28:29;;;;;;;84.03;35.37;;;19.40;99.90;;;;;;5019005;28;20199;-63
2023/08/18 08:30:57;;;;;;;84.40;35.77;;;19.50;99.90;;;;;;5008241;28;20697;-63
2023/08/18 08:33:26;;;;;;;81.03;33.63;;;19.60;99.90;;;;;;4993499;28;20210;-63
2023/08/18 08:35:54;;;;;;;88.53;36.93;;;19.60;99.90;;;;;;5009215;28;20588;-63
2023/08/18 08:38:23;;;;;;;91.93;36.63;;;19.60;99.90;;;;;;5012026;28;20226;-63
2023/08/18 08:40:54;;;;;;;79.60;34.47;;;19.60;99.90;;;;;;5017847;28;20584;-63
2023/08/18 08:43:23;;;;;;;81.30;34.40;;;19.60;99.90;;;;;;5010012;28;20198;-63
2023/08/18 08:45:54;;;;;;;79.27;34.80;;;19.60;99.90;;;;;;5010233;28;20198;-64
2023/08/18 08:48:24;;;;;;;81.60;34.97;;;19.70;99.90;;;;;;5007894;28;20218;-64
2023/08/18 08:50:59;;;;;;;74.30;33.87;;;19.80;99.90;;;;;;5016151;28;20218;-63
2023/08/18 08:53:32;;;;;;;82.20;35.90;;;19.80;99.90;;;;;;5007443;28;20731;-63
2023/08/18 08:56:03;;;;;;;78.90;33.57;;;20.00;99.90;;;;;;5013932;28;20226;-64
2023/08/18 08:58:37;;;;;;;79.37;35.23;;;19.90;99.90;;;;;;5011403;28;20974;-64
2023/08/18 09:01:07;;;;;;;74.10;34.57;;;20.00;99.90;;;;;;5012058;28;20658;-64
2023/08/18 09:03:35;;;;;;;77.43;32.93;;;19.90;99.90;;;;;;5014050;28;20560;-63
2023/08/18 09:06:06;;;;;;;78.13;35.00;;;19.90;99.90;;;;;;5013139;28;20225;-64
2023/08/18 09:08:35;;;;;;;81.50;34.90;;;20.00;99.90;;;;;;5008000;28;20236;-64
2023/08/18 09:11:03;;;;;;;86.83;36.30;;;20.10;99.90;;;;;;5006376;28;20739;-64
2023/08/18 09:13:33;;;;;;;80.23;36.07;;;20.10;99.90;;;;;;5004885;28;20202;-63
2023/08/18 09:16:04;;;;;;;76.63;34.63;;;20.10;99.90;;;;;;5010282;28;20201;-64
2023/08/18 09:18:34;;;;;;;70.57;32.80;;;20.10;99.90;;;;;;5015035;28;20241;-63
2023/08/18 09:21:04;;;;;;;74.83;34.47;;;20.20;99.90;;;;;;5011961;28;20889;-64
2023/08/18 09:23:34;;;;;;;71.60;35.17;;;20.20;99.90;;;;;;5013499;28;20226;-63
2023/08/18 09:26:04;;;;;;;75.80;34.90;;;20.40;99.90;;;;;;5009317;28;20222;-63
2023/08/18 09:28:33;;;;;;;71.80;33.40;;;20.40;99.90;;;;;;5013130;28;20731;-63
2023/08/18 09:31:02;;;;;;;77.07;33.73;;;20.50;99.90;;;;;;5012890;28;20235;-63
2023/08/18 09:33:31;;;;;;;71.80;33.33;;;20.60;99.90;;;;;;5012902;28;20308;-63
2023/08/18 09:36:04;;;;;;;72.80;34.07;;;20.60;99.90;;;;;;4991921;28;20230;-63
2023/08/18 09:38:40;;;;;;;83.47;35.43;;;20.70;99.90;;;;;;5006124;28;20316;-63
2023/08/18 09:41:08;;;;;;;74.17;33.27;;;20.70;99.90;;;;;;4987812;28;20245;-63
2023/08/18 09:43:37;;;;;;;76.17;34.23;;;20.60;99.90;;;;;;5010460;28;20202;-63
2023/08/18 09:46:06;;;;;;;78.27;32.70;;;20.60;99.90;;;;;;5007329;28;20195;-64
2023/08/18 09:48:35;;;;;;;66.60;32.13;;;20.80;99.90;;;;;;5009280;28;20226;-63
2023/08/18 09:51:08;;;;;;;69.70;30.67;;;20.90;99.90;;;;;;5012162;28;20238;-63
2023/08/18 09:53:39;;;;;;;80.13;34.27;;;21.00;99.90;;;;;;5008122;28;20240;-64
2023/08/18 09:56:12;;;;;;;72.63;32.53;;;21.00;99.90;;;;;;5005125;28;20316;-64
2023/08/18 09:58:47;;;;;;;66.30;32.67;;;21.10;99.90;;;;;;5005322;28;20734;-63
2023/08/18 10:01:18;;;;;;;68.33;32.80;;;21.10;99.90;;;;;;5012309;28;20227;-63
2023/08/18 10:03:47;;;;;;;62.97;30.10;;;21.10;99.90;;;;;;5010796;28;20237;-63
2023/08/18 10:06:18;;;;;;;72.37;33.13;;;21.20;99.90;;;;;;5010613;28;20307;-63
2023/08/18 10:08:47;;;;;;;63.00;31.70;;;21.30;99.90;;;;;;5007377;28;20229;-63
2023/08/18 10:11:16;;;;;;;67.30;31.73;;;21.30;99.90;;;;;;5008077;28;20318;-63
2023/08/18 10:13:45;;;;;;;65.97;32.33;;;21.30;99.90;;;;;;5009858;28;20305;-63
2023/08/18 10:16:14;;;;;;;62.57;31.00;;;21.30;99.90;;;;;;5009425;28;20203;-64
2023/08/18 10:18:43;;;;;;;69.70;32.97;;;21.40;99.90;;;;;;5007508;28;20620;-63
2023/08/18 10:21:13;;;;;;;68.97;33.40;;;21.40;99.90;;;;;;5008798;28;20499;-63
2023/08/18 10:23:46;;;;;;;74.33;34.17;;;21.50;99.90;;;;;;4996946;28;20228;-63
2023/08/18 10:26:14;;;;;;;64.70;31.80;;;21.40;99.90;;;;;;5010387;28;20228;-64
2023/08/18 10:28:43;;;;;;;63.87;31.60;;;21.50;99.90;;;;;;4991441;28;20229;-64
2023/08/18 10:31:14;;;;;;;64.33;31.37;;;21.70;99.90;;;;;;5009400;28;20194;-64
2023/08/18 10:33:45;;;;;;;70.70;31.73;;;21.70;99.90;;;;;;5010882;28;20735;-64
2023/08/18 10:36:20;;;;;;;62.50;30.60;;;21.80;99.90;;;;;;5006223;28;20217;-64
2023/08/18 10:38:51;;;;;;;62.97;31.40;;;21.90;99.90;;;;;;5007489;28;20730;-64
2023/08/18 10:41:26;;;;;;;63.47;32.07;;;22.00;99.90;;;;;;4988830;28;20218;-64
2023/08/18 10:43:57;;;;;;;54.40;28.50;;;21.90;99.90;;;;;;5006909;28;20222;-63
2023/08/18 10:46:34;;;;;;;63.77;32.00;;;22.10;99.90;;;;;;5010384;28;20247;-63
2023/08/18 10:49:02;;;;;;;75.87;33.77;;;22.30;99.90;;;;;;5006624;28;20249;-63
2023/08/18 10:51:31;;;;;;;68.97;33.50;;;22.40;99.90;;;;;;5008524;28;20228;-63
2023/08/18 10:54:01;;;;;;;59.63;31.53;;;22.50;99.90;;;;;;5004771;28;20290;-64
2023/08/18 10:56:30;;;;;;;65.00;32.60;;;22.70;99.90;;;;;;5000538;28;20220;-64
2023/08/18 10:58:58;;;;;;;61.60;30.63;;;22.90;99.90;;;;;;5006362;28;20234;-63
2023/08/18 11:01:28;;;;;;;66.50;33.03;;;23.00;99.90;;;;;;4992249;28;20287;-63
2023/08/18 11:03:56;;;;;;;67.77;32.37;;;23.20;99.90;;;;;;5006483;28;20264;-64
2023/08/18 11:06:26;;;;;;;62.30;32.90;;;23.30;99.90;;;;;;5005052;28;20700;-65
2023/08/18 11:08:55;;;;;;;62.73;32.70;;;23.30;99.90;;;;;;5006909;28;20214;-64
2023/08/18 11:11:29;;;;;;;71.43;34.37;;;23.30;99.90;;;;;;5006132;28;20290;-67
2023/08/18 11:13:57;;;;;;;63.73;32.37;;;23.20;99.90;;;;;;5000279;28;20225;-66
2023/08/18 11:16:25;;;;;;;62.20;31.70;;;23.40;99.90;;;;;;4989610;28;20206;-64
2023/08/18 11:18:54;;;;;;;63.67;32.10;;;23.60;99.90;;;;;;4987149;28;20213;-63
2023/08/18 11:21:23;;;;;;;71.87;34.63;;;23.50;99.90;;;;;;5001985;28;20232;-63
2023/08/18 11:23:53;;;;;;;58.23;31.47;;;23.50;99.90;;;;;;5002740;28;20695;-64
2023/08/18 11:26:21;;;;;;;58.57;31.40;;;23.80;99.90;;;;;;4994221;28;20226;-63
2023/08/18 11:28:51;;;;;;;80.23;35.03;;;24.00;99.90;;;;;;4993237;28;20649;-64
2023/08/18 11:31:20;;;;;;;64.93;33.77;;;24.10;99.90;;;;;;4996947;28;20712;-64
2023/08/18 11:33:49;;;;;;;64.37;32.13;;;24.10;99.90;;;;;;4995576;28;20657;-64
2023/08/18 11:36:18;;;;;;;53.73;29.40;;;24.40;99.90;;;;;;4995263;28;20218;-64
2023/08/18 11:38:46;;;;;;;50.23;27.03;;;24.70;99.90;;;;;;4996994;28;20219;-64
2023/08/18 11:41:15;;;;;;;58.72;30.38;;;25.30;99.90;;;;;;4997792;28;20222;-64
2023/08/18 11:43:43;;;;;;;60.45;31.60;;;25.70;99.90;;;;;;4994768;28;20219;-64
2023/08/18 11:46:12;;;;;;;57.00;29.90;;;25.90;99.90;;;;;;5000741;28;20288;-64
2023/08/18 11:48:41;;;;;;;57.33;30.40;;;26.20;99.90;;;;;;4998346;28;20258;-64
2023/08/18 11:51:14;;;;;;;56.53;28.70;;;26.70;99.90;;;;;;4986708;28;20223;-64
2023/08/18 11:53:42;;;;;;;57.40;29.40;;;26.90;99.90;;;;;;4988598;28;20331;-66
2023/08/18 11:56:11;;;;;;;59.15;30.33;;;27.10;99.90;;;;;;5005637;28;20222;-63
2023/08/18 11:58:41;;;;;;;51.38;28.05;;;27.00;99.90;;;;;;5003675;28;20227;-66
2023/08/18 12:01:11;;;;;;;50.47;27.92;;;26.90;99.90;;;;;;5008385;28;20201;-66
2023/08/18 12:03:40;;;;;;;43.58;25.98;;;27.00;99.90;;;;;;5004773;28;20729;-64
2023/08/18 12:06:09;;;;;;;54.00;29.38;;;27.30;99.90;;;;;;5004367;28;20562;-64
2023/08/18 12:08:37;;;;;;;55.90;28.10;;;26.90;99.90;;;;;;5003713;28;22137;-64
2023/08/18 12:11:06;;;;;;;52.30;28.35;;;26.50;99.90;;;;;;5003514;28;20227;-64
2023/08/18 12:13:34;;;;;;;55.83;30.58;;;26.70;99.90;;;;;;5002465;28;20612;-64
2023/08/18 12:16:02;;;;;;;47.45;26.73;;;27.10;99.90;;;;;;5007202;28;20848;-65
2023/08/18 12:18:31;;;;;;;50.33;28.55;;;27.30;99.90;;;;;;5010268;28;20221;-58
2023/08/18 12:21:01;;;;;;;51.72;28.60;;;27.60;99.90;;;;;;4995463;28;20232;-58
2023/08/18 12:23:29;;;;;;;51.55;28.88;;;27.50;99.90;;;;;;5008647;28;20587;-59
2023/08/18 12:25:57;;;;;;;48.67;27.23;;;27.50;99.90;;;;;;5004499;28;20635;-65
2023/08/18 12:28:26;;;;;;;51.92;28.58;;;27.40;99.90;;;;;;5007976;28;20622;-64
2023/08/18 12:30:54;;;;;;;47.08;25.98;;;27.50;99.90;;;;;;5008775;28;20192;-64
2023/08/18 12:33:25;;;;;;;48.38;26.38;;;27.60;99.90;;;;;;5002701;28;20714;-64
2023/08/18 12:35:53;;;;;;;42.30;24.85;;;27.80;99.90;;;;;;5008555;28;20721;-64